createdAt,value
2022-12-20T00:01:48.181Z,0.57
2022-12-20T00:04:15.315Z,0.32
2022-12-20T00:06:42.566Z,0.10
2022-12-20T00:09:10.344Z,0.45
2022-12-20T00:11:39.409Z,0.35
2022-12-20T00:14:06.665Z,0.25
2022-12-20T00:16:33.879Z,0.10
2022-12-20T00:19:02.623Z,0.20
2022-12-20T00:21:30.214Z,0.20
2022-12-20T00:23:57.553Z,0.40
2022-12-20T00:26:26.242Z,0.43
2022-12-20T00:28:53.963Z,0.20
2022-12-20T00:31:22.531Z,0.30
2022-12-20T00:33:51.698Z,0.30
2022-12-20T00:36:19.455Z,0.10
2022-12-20T00:38:47.553Z,0.10
2022-12-20T00:41:15.884Z,0.20
2022-12-20T00:43:43.071Z,0.30
2022-12-20T00:46:11.057Z,0.20
2022-12-20T00:48:38.450Z,0.10
2022-12-20T00:51:10.324Z,0.35
2022-12-20T00:53:37.876Z,0.10
2022-12-20T00:56:05.649Z,0.10
2022-12-20T00:58:33.961Z,0.20
2022-12-20T01:01:01.130Z,0.13
2022-12-20T01:03:28.735Z,0.13
2022-12-20T01:05:56.005Z,0.40
2022-12-20T01:08:23.649Z,0.55
2022-12-20T01:11:01.268Z,0.20
2022-12-20T01:13:29.037Z,0.20
2022-12-20T01:15:56.458Z,0.40
2022-12-20T01:18:23.943Z,0.45
2022-12-20T01:20:51.065Z,0.13
2022-12-20T01:23:18.141Z,0.22
2022-12-20T01:25:45.811Z,0.20
2022-12-20T01:28:12.904Z,0.10
2022-12-20T01:30:43.394Z,0.13
2022-12-20T01:33:10.549Z,0.63
2022-12-20T01:35:37.665Z,0.73
2022-12-20T01:38:04.812Z,0.10
2022-12-20T01:40:31.983Z,0.20
2022-12-20T01:42:59.058Z,0.88
2022-12-20T01:45:28.151Z,0.40
2022-12-20T01:47:55.846Z,0.43
2022-12-20T01:50:23.499Z,0.55
2022-12-20T01:52:50.695Z,0.40
2022-12-20T01:55:20.422Z,0.20
2022-12-20T01:57:53.819Z,0.40
2022-12-20T02:00:21.206Z,0.73
2022-12-20T02:02:49.043Z,0.35
2022-12-20T02:05:16.990Z,0.40
2022-12-20T02:07:45.070Z,0.30
2022-12-20T02:10:12.563Z,0.40
2022-12-20T02:12:43.800Z,0.20
2022-12-20T02:15:13.998Z,0.20
2022-12-20T02:18:10.239Z,0.57
2022-12-20T02:21:02.527Z,0.15
2022-12-20T02:23:38.457Z,0.22
2022-12-20T02:26:05.773Z,0.75
2022-12-20T02:28:47.907Z,0.25
2022-12-20T02:31:17.763Z,0.20
2022-12-20T02:33:47.831Z,0.10
2022-12-20T02:36:18.365Z,0.20
2022-12-20T02:38:45.761Z,0.17
2022-12-20T02:41:15.632Z,0.20
2022-12-20T02:44:02.706Z,0.10
2022-12-20T02:46:30.220Z,0.28
2022-12-20T02:49:00.039Z,0.20
2022-12-20T02:51:29.271Z,0.20
2022-12-20T02:53:56.584Z,0.10
2022-12-20T02:56:24.061Z,0.13
2022-12-20T02:58:53.218Z,0.45
2022-12-20T03:01:29.326Z,0.30
2022-12-20T03:03:58.019Z,0.20
2022-12-20T03:06:25.343Z,0.20
2022-12-20T03:08:52.461Z,0.30
2022-12-20T03:11:20.572Z,0.63
2022-12-20T03:13:47.801Z,0.20
2022-12-20T03:16:15.128Z,0.10
2022-12-20T03:18:42.389Z,0.40
2022-12-20T03:21:09.477Z,0.50
2022-12-20T03:23:36.662Z,0.20
2022-12-20T03:26:03.813Z,0.20
2022-12-20T03:28:30.980Z,0.30
2022-12-20T03:30:58.134Z,0.15
2022-12-20T03:33:25.530Z,0.10
2022-12-20T03:35:52.682Z,0.10
2022-12-20T03:38:21.069Z,0.57
2022-12-20T03:40:48.323Z,0.22
2022-12-20T03:43:15.475Z,0.10
2022-12-20T03:45:42.709Z,0.10
2022-12-20T03:48:09.956Z,0.30
2022-12-20T03:50:37.258Z,0.20
2022-12-20T03:53:04.429Z,0.30
2022-12-20T03:55:31.720Z,0.30
2022-12-20T03:57:58.837Z,1.42
2022-12-20T04:00:26.238Z,0.30
2022-12-20T04:02:53.569Z,0.20
2022-12-20T04:05:21.300Z,0.22
2022-12-20T04:07:48.379Z,0.10
2022-12-20T04:10:15.655Z,0.13
2022-12-20T04:12:42.765Z,0.10
2022-12-20T04:15:10.053Z,0.50
2022-12-20T04:17:37.257Z,0.40
2022-12-20T04:20:19.072Z,0.20
2022-12-20T04:22:49.856Z,0.20
2022-12-20T04:25:17.926Z,0.57
2022-12-20T04:27:45.042Z,0.15
2022-12-20T04:30:12.639Z,0.57
2022-12-20T04:32:39.931Z,0.43
2022-12-20T04:35:07.442Z,0.10
2022-12-20T04:37:34.789Z,0.47
2022-12-20T04:40:01.910Z,0.10
2022-12-20T04:42:29.042Z,0.45
2022-12-20T04:44:56.231Z,0.10
2022-12-20T04:47:23.429Z,0.35
2022-12-20T04:49:50.550Z,0.10
2022-12-20T04:52:40.839Z,0.10
2022-12-20T04:55:10.666Z,0.10
2022-12-20T04:57:37.919Z,0.50
2022-12-20T05:00:05.177Z,0.10
2022-12-20T05:02:32.349Z,0.30
2022-12-20T05:04:59.574Z,0.25
2022-12-20T05:07:26.774Z,0.52
2022-12-20T05:09:53.910Z,0.20
2022-12-20T05:12:21.167Z,0.30
2022-12-20T05:14:48.259Z,0.60
2022-12-20T05:17:15.328Z,0.17
2022-12-20T05:19:42.484Z,0.10
2022-12-20T05:22:29.869Z,0.10
2022-12-20T05:25:15.950Z,0.57
2022-12-20T05:27:43.042Z,0.47
2022-12-20T05:30:10.424Z,0.20
2022-12-20T05:32:37.588Z,0.50
2022-12-20T05:35:04.826Z,0.32
2022-12-20T05:37:31.881Z,0.20
2022-12-20T05:39:59.130Z,0.10
2022-12-20T05:42:26.231Z,0.30
2022-12-20T05:44:53.381Z,0.43
2022-12-20T05:47:20.544Z,0.10
2022-12-20T05:49:47.683Z,0.30
2022-12-20T05:52:14.896Z,0.10
2022-12-20T05:54:42.138Z,0.30
2022-12-20T05:57:09.300Z,0.85
2022-12-20T05:59:36.495Z,0.43
2022-12-20T06:02:03.795Z,0.45
2022-12-20T06:04:32.235Z,0.45
2022-12-20T06:07:02.349Z,0.30
2022-12-20T06:09:30.323Z,0.17
2022-12-20T06:11:57.559Z,0.10
2022-12-20T06:14:24.789Z,0.10
2022-12-20T06:16:53.184Z,0.10
2022-12-20T06:19:21.837Z,0.10
2022-12-20T06:21:49.128Z,0.20
2022-12-20T06:24:16.471Z,0.10
2022-12-20T06:26:43.670Z,0.10
2022-12-20T06:29:14.163Z,0.10
2022-12-20T06:31:41.745Z,0.55
2022-12-20T06:34:08.967Z,0.22
2022-12-20T06:36:36.305Z,0.20
2022-12-20T06:39:09.466Z,0.10
2022-12-20T06:41:37.410Z,0.32
2022-12-20T06:44:04.658Z,0.35
2022-12-20T06:46:31.879Z,0.50
2022-12-20T06:48:59.373Z,0.20
2022-12-20T06:51:26.828Z,0.22
2022-12-20T06:53:53.915Z,0.13
2022-12-20T06:56:21.080Z,0.10
2022-12-20T06:58:48.304Z,0.20
2022-12-20T07:01:15.469Z,0.85
2022-12-20T07:03:42.767Z,0.47
2022-12-20T07:06:10.153Z,0.20
2022-12-20T07:08:37.436Z,0.30
2022-12-20T07:11:05.890Z,0.57
2022-12-20T07:13:33.074Z,0.13
2022-12-20T07:16:00.872Z,0.20
2022-12-20T07:18:28.413Z,0.32
2022-12-20T07:20:55.693Z,0.17
2022-12-20T07:23:22.820Z,0.17
2022-12-20T07:25:56.487Z,0.10
2022-12-20T07:28:24.475Z,0.30
2022-12-20T07:30:53.431Z,0.17
2022-12-20T07:33:20.834Z,0.38
2022-12-20T07:35:53.951Z,0.10
2022-12-20T07:38:21.598Z,0.57
2022-12-20T07:40:48.718Z,0.20
2022-12-20T07:43:15.900Z,0.20
2022-12-20T07:45:43.332Z,1.17
2022-12-20T07:48:15.915Z,0.10
2022-12-20T07:50:47.351Z,0.13
2022-12-20T07:53:14.933Z,0.50
2022-12-20T07:55:42.464Z,0.28
2022-12-20T07:58:10.909Z,0.57
2022-12-20T08:00:39.014Z,0.13
2022-12-20T08:03:19.298Z,0.10
2022-12-20T08:05:48.234Z,0.35
2022-12-20T08:08:15.837Z,0.35
2022-12-20T08:10:43.194Z,1.95
2022-12-20T08:13:10.538Z,0.35
2022-12-20T08:15:37.689Z,0.38
2022-12-20T08:18:06.418Z,0.10
2022-12-20T08:20:33.902Z,0.10
2022-12-20T08:23:03.140Z,0.10
2022-12-20T08:25:34.550Z,0.10
2022-12-20T08:28:04.679Z,0.30
2022-12-20T08:30:32.001Z,0.20
2022-12-20T08:32:59.198Z,0.10
2022-12-20T08:35:26.363Z,0.20
2022-12-20T08:37:53.841Z,0.85
2022-12-20T08:40:21.588Z,0.70
2022-12-20T08:42:48.768Z,0.10
2022-12-20T08:45:15.998Z,0.20
2022-12-20T08:47:43.131Z,0.10
2022-12-20T08:50:10.481Z,0.20
2022-12-20T08:52:37.813Z,0.20
2022-12-20T08:55:05.696Z,0.55
2022-12-20T08:57:32.969Z,0.20
2022-12-20T09:00:00.129Z,0.20
2022-12-20T09:02:27.475Z,0.30
2022-12-20T09:04:54.821Z,0.10
2022-12-20T09:07:23.706Z,0.43
2022-12-20T09:09:50.828Z,0.30
2022-12-20T09:12:18.082Z,0.20
2022-12-20T09:14:45.271Z,0.20
2022-12-20T09:17:12.450Z,0.30
2022-12-20T09:19:39.582Z,0.32
2022-12-20T09:22:06.738Z,0.20
2022-12-20T09:24:33.877Z,0.13
2022-12-20T09:27:01.143Z,0.30
2022-12-20T09:29:35.129Z,0.30
2022-12-20T09:32:02.903Z,0.25
2022-12-20T09:34:29.969Z,0.20
2022-12-20T09:36:57.025Z,0.20
2022-12-20T09:39:24.261Z,0.10
2022-12-20T09:41:51.557Z,0.57
2022-12-20T09:44:24.458Z,0.28
2022-12-20T09:46:56.622Z,0.10
2022-12-20T09:49:26.474Z,0.20
2022-12-20T09:51:53.597Z,0.15
2022-12-20T09:54:32.698Z,0.50
2022-12-20T09:57:05.895Z,0.47
2022-12-20T09:59:40.349Z,0.63
2022-12-20T10:02:55.214Z,0.25
2022-12-20T10:05:28.458Z,0.10
2022-12-20T10:08:04.573Z,0.20
2022-12-20T10:10:31.759Z,0.20
2022-12-20T10:13:05.543Z,0.40
2022-12-20T10:15:36.886Z,0.40
2022-12-20T10:18:06.825Z,0.10
2022-12-20T10:20:47.875Z,0.10
2022-12-20T10:23:29.333Z,0.25
2022-12-20T10:25:59.995Z,0.40
2022-12-20T10:28:29.532Z,0.75
2022-12-20T10:31:00.270Z,0.10
2022-12-20T10:33:28.190Z,0.40
2022-12-20T10:35:55.347Z,0.77
2022-12-20T10:38:24.009Z,0.20
2022-12-20T10:43:52.252Z,0.47
2022-12-20T10:46:20.073Z,0.20
2022-12-20T10:48:48.227Z,0.13
2022-12-20T10:51:17.305Z,0.32
2022-12-20T10:54:01.395Z,0.10
2022-12-20T10:56:31.584Z,0.60
2022-12-20T10:59:03.089Z,0.50
2022-12-20T11:01:32.326Z,0.20
2022-12-20T11:04:04.510Z,0.10
2022-12-20T11:06:37.912Z,0.30
2022-12-20T11:09:20.545Z,0.10
2022-12-20T11:12:00.972Z,0.10
2022-12-20T11:14:32.817Z,0.68
2022-12-20T11:17:14.160Z,0.95
2022-12-20T11:19:55.644Z,0.25
2022-12-20T11:22:28.600Z,0.10
2022-12-20T11:25:04.303Z,0.40
2022-12-20T11:27:38.495Z,0.40
2022-12-20T11:30:05.944Z,0.65
2022-12-20T11:33:00.370Z,0.50
2022-12-20T11:35:45.902Z,1.17
2022-12-20T11:38:13.000Z,0.20
2022-12-20T11:40:40.324Z,0.30
2022-12-20T11:43:18.820Z,0.47
2022-12-20T11:45:55.787Z,0.20
2022-12-20T11:48:38.258Z,0.88
2022-12-20T11:51:26.570Z,0.43
2022-12-20T11:53:54.428Z,0.30
2022-12-20T11:56:43.868Z,0.70
2022-12-20T11:59:36.367Z,0.60
2022-12-20T12:02:12.522Z,0.65
2022-12-20T12:04:43.812Z,0.15
2022-12-20T12:07:14.957Z,0.10
2022-12-20T12:09:47.681Z,0.30
2022-12-20T12:12:20.959Z,0.10
2022-12-20T12:15:11.207Z,0.10
2022-12-20T12:17:47.546Z,0.38
2022-12-20T12:20:24.486Z,0.52
2022-12-20T12:22:54.316Z,1.15
2022-12-20T12:25:21.620Z,0.25
2022-12-20T12:27:48.814Z,1.08
2022-12-20T12:30:16.532Z,0.52
2022-12-20T12:32:49.816Z,0.50
2022-12-20T12:35:24.725Z,0.20
2022-12-20T12:37:55.623Z,0.35
2022-12-20T12:40:34.564Z,0.10
2022-12-20T12:43:37.432Z,0.22
2022-12-20T12:46:14.141Z,0.10
2022-12-20T12:48:48.107Z,0.50
2022-12-20T12:51:16.114Z,0.43
2022-12-20T12:53:50.724Z,0.22
2022-12-20T12:56:43.127Z,0.70
2022-12-20T12:59:21.085Z,0.47
2022-12-20T13:01:55.959Z,0.28
2022-12-20T13:04:24.715Z,0.20
2022-12-20T13:06:55.653Z,0.17
2022-12-20T13:09:22.748Z,0.45
2022-12-20T13:11:57.440Z,1.50
2022-12-20T13:14:27.640Z,0.95
2022-12-20T13:17:12.206Z,0.38
2022-12-20T13:19:44.087Z,0.35
2022-12-20T13:22:16.970Z,0.10
2022-12-20T13:24:49.198Z,0.25
2022-12-20T13:27:18.384Z,0.47
2022-12-20T13:29:57.151Z,0.10
2022-12-20T13:32:43.166Z,0.55
2022-12-20T13:35:25.787Z,0.50
2022-12-20T13:38:06.647Z,0.93
2022-12-20T13:40:51.525Z,1.13
2022-12-20T13:43:25.200Z,0.20
2022-12-20T13:45:52.372Z,0.30
2022-12-20T13:48:26.271Z,0.10
2022-12-20T13:50:55.200Z,1.15
2022-12-20T13:53:23.374Z,0.10
2022-12-20T13:55:50.667Z,0.17
2022-12-20T13:58:22.989Z,0.63
2022-12-20T14:00:50.542Z,0.80
2022-12-20T14:03:25.964Z,0.50
2022-12-20T14:05:56.995Z,0.55
2022-12-20T14:08:26.603Z,0.20
2022-12-20T14:10:54.103Z,0.65
2022-12-20T14:13:25.466Z,0.10
2022-12-20T14:15:53.079Z,0.52
2022-12-20T14:18:26.855Z,0.40
2022-12-20T14:20:56.324Z,0.68
2022-12-20T14:23:25.923Z,0.65
2022-12-20T14:25:57.855Z,0.15
2022-12-20T14:28:41.946Z,2.67
2022-12-20T14:31:23.613Z,1.05
2022-12-20T14:33:51.481Z,0.77
2022-12-20T14:36:19.211Z,0.47
2022-12-20T14:38:47.547Z,0.10
2022-12-20T14:41:33.504Z,0.30
2022-12-20T14:44:02.926Z,0.25
2022-12-20T14:46:31.044Z,1.00
2022-12-20T14:49:17.220Z,0.60
2022-12-20T14:51:44.524Z,0.30
2022-12-20T14:54:47.753Z,0.73
2022-12-20T14:57:12.002Z,0.35
2022-12-20T14:59:39.194Z,0.13
2022-12-20T15:02:25.402Z,0.20
2022-12-20T15:04:52.813Z,0.77
2022-12-20T15:07:30.934Z,1.08
2022-12-20T15:09:59.071Z,0.47
2022-12-20T15:12:26.351Z,0.80
2022-12-20T15:14:53.503Z,0.40
2022-12-20T15:17:20.891Z,0.57
2022-12-20T15:19:48.011Z,0.70
2022-12-20T15:22:16.555Z,0.68
2022-12-20T15:24:43.752Z,1.50
2022-12-20T15:27:17.153Z,0.57
2022-12-20T15:29:44.370Z,0.47
2022-12-20T15:32:14.431Z,1.10
2022-12-20T15:34:41.798Z,0.70
2022-12-20T15:37:17.360Z,0.65
2022-12-20T15:39:45.728Z,0.57
2022-12-20T15:42:15.452Z,0.73
2022-12-20T15:44:43.207Z,1.08
2022-12-20T15:47:13.876Z,0.30
2022-12-20T15:49:47.921Z,0.10
2022-12-20T15:52:19.631Z,0.60
2022-12-20T15:54:46.728Z,0.75
2022-12-20T15:57:17.719Z,0.75
2022-12-20T16:00:14.044Z,0.10
2022-12-20T16:02:33.187Z,0.85
2022-12-20T16:05:01.534Z,0.47
2022-12-20T16:07:28.727Z,0.50
2022-12-20T16:09:55.927Z,0.85
2022-12-20T16:12:30.746Z,0.40
2022-12-20T16:14:57.926Z,0.52
2022-12-20T16:17:25.064Z,0.50
2022-12-20T16:19:52.243Z,0.28
2022-12-20T16:22:21.760Z,1.00
2022-12-20T16:24:48.907Z,0.38
2022-12-20T16:27:16.150Z,0.22
2022-12-20T16:29:43.389Z,0.55
2022-12-20T16:32:18.317Z,0.20
2022-12-20T16:34:45.813Z,0.65
2022-12-20T16:37:13.109Z,0.52
2022-12-20T16:39:40.507Z,1.25
2022-12-20T16:42:15.139Z,2.05
2022-12-20T16:44:44.491Z,0.80
2022-12-20T16:47:12.346Z,0.75
2022-12-20T16:49:41.983Z,1.50
2022-12-20T16:52:18.789Z,0.82
2022-12-20T16:54:46.152Z,0.25
2022-12-20T16:57:13.414Z,0.52
2022-12-20T16:59:40.653Z,0.43
2022-12-20T17:02:26.063Z,0.50
2022-12-20T17:04:53.691Z,0.43
2022-12-20T17:07:22.165Z,0.68
2022-12-20T17:12:33.808Z,0.32
2022-12-20T17:15:01.058Z,1.02
2022-12-20T17:17:28.136Z,2.08
2022-12-20T17:19:55.350Z,1.30
2022-12-20T17:22:25.553Z,0.68
2022-12-20T17:24:52.749Z,1.02
2022-12-20T17:27:19.989Z,1.83
2022-12-20T17:29:47.134Z,1.08
2022-12-20T17:32:21.831Z,0.30
2022-12-20T17:34:50.930Z,0.98
2022-12-20T17:37:18.261Z,2.03
2022-12-20T17:39:45.488Z,1.73
2022-12-20T17:42:16.030Z,1.20
2022-12-20T17:44:43.160Z,0.85
2022-12-20T17:47:11.692Z,1.27
2022-12-20T17:49:39.088Z,1.02
2022-12-20T17:52:06.552Z,2.08
2022-12-20T17:54:39.629Z,0.63
2022-12-20T17:57:07.719Z,1.33
2022-12-20T17:59:34.954Z,0.52
2022-12-20T18:02:02.234Z,0.40
2022-12-20T18:04:29.538Z,0.40
2022-12-20T18:06:57.325Z,1.38
2022-12-20T18:09:24.587Z,0.95
2022-12-20T18:11:51.767Z,0.98
2022-12-20T18:14:19.013Z,0.40
2022-12-20T18:16:46.349Z,0.80
2022-12-20T18:19:20.435Z,1.70
2022-12-20T18:21:47.633Z,1.13
2022-12-20T18:24:15.904Z,3.08
2022-12-20T18:26:43.673Z,1.23
2022-12-20T18:29:11.125Z,1.10
2022-12-20T18:31:38.558Z,1.10
2022-12-20T18:34:05.863Z,0.70
2022-12-20T18:36:34.951Z,0.85
2022-12-20T18:39:02.597Z,0.68
2022-12-20T18:41:31.335Z,1.65
2022-12-20T18:44:00.950Z,1.00
2022-12-20T18:46:28.281Z,1.42
2022-12-20T18:48:56.038Z,0.82
2022-12-20T18:51:24.528Z,0.75
2022-12-20T18:53:54.013Z,1.17
2022-12-20T18:56:22.346Z,1.38
2022-12-20T18:58:49.754Z,0.88
2022-12-20T19:01:20.950Z,1.23
2022-12-20T19:03:49.159Z,0.95
2022-12-20T19:06:16.565Z,1.45
2022-12-20T19:08:43.814Z,1.92
2022-12-20T19:11:12.549Z,1.23
2022-12-20T19:13:40.088Z,1.55
2022-12-20T19:16:08.671Z,0.88
2022-12-20T19:18:36.046Z,1.92
2022-12-20T19:21:06.362Z,0.73
2022-12-20T19:23:34.064Z,0.85
2022-12-20T19:26:05.326Z,0.93
2022-12-20T19:28:33.357Z,0.70
2022-12-20T19:31:21.026Z,0.60
2022-12-20T19:33:48.749Z,0.47
2022-12-20T19:36:36.198Z,1.42
2022-12-20T19:39:04.512Z,1.20
2022-12-20T19:41:32.780Z,0.35
2022-12-20T19:44:00.160Z,0.68
2022-12-20T19:46:29.587Z,1.23
2022-12-20T19:48:57.614Z,0.90
2022-12-20T19:51:25.947Z,1.88
2022-12-20T19:53:54.007Z,0.63
2022-12-20T19:56:25.766Z,1.10
2022-12-20T19:58:53.422Z,1.02
2022-12-20T20:01:22.901Z,0.70
2022-12-20T20:03:50.228Z,1.65
2022-12-20T20:06:17.493Z,0.43
2022-12-20T20:08:45.548Z,1.88
2022-12-20T20:11:12.771Z,1.85
2022-12-20T20:13:40.340Z,1.60
2022-12-20T20:16:08.320Z,1.63
2022-12-20T20:18:36.230Z,1.35
2022-12-20T20:21:10.678Z,1.77
2022-12-20T20:23:38.258Z,0.40
2022-12-20T20:26:09.669Z,2.17
2022-12-20T20:28:43.637Z,2.35
2022-12-20T20:31:12.756Z,1.98
2022-12-20T20:33:40.201Z,1.38
2022-12-20T20:36:07.625Z,1.85
2022-12-20T20:38:35.242Z,3.47
2022-12-20T20:41:02.651Z,4.80
2022-12-20T20:43:29.967Z,2.78
2022-12-20T20:45:57.472Z,2.30
2022-12-20T20:48:24.557Z,2.53
2022-12-20T20:50:51.656Z,3.22
2022-12-20T20:53:19.172Z,2.72
2022-12-20T20:55:46.742Z,4.38
2022-12-20T20:58:13.913Z,1.83
2022-12-20T21:00:41.112Z,2.28
2022-12-20T21:03:08.501Z,2.50
2022-12-20T21:06:14.122Z,1.70
2022-12-20T21:08:22.898Z,1.77
2022-12-20T21:10:50.675Z,1.52
2022-12-20T21:13:17.989Z,1.17
2022-12-20T21:15:46.530Z,1.15
2022-12-20T21:18:14.276Z,1.08
2022-12-20T21:20:42.323Z,1.55
2022-12-20T21:23:11.539Z,0.50
2022-12-20T21:25:38.694Z,1.25
2022-12-20T21:28:05.855Z,1.25
2022-12-20T21:30:33.222Z,0.43
2022-12-20T21:33:00.362Z,0.90
2022-12-20T21:35:27.490Z,0.50
2022-12-20T21:37:54.621Z,1.10
2022-12-20T21:40:21.778Z,0.88
2022-12-20T21:42:48.871Z,1.35
2022-12-20T21:45:16.248Z,0.93
2022-12-20T21:47:43.710Z,0.95
2022-12-20T21:50:14.154Z,1.67
2022-12-20T21:52:41.361Z,0.82
2022-12-20T21:55:08.681Z,1.90
2022-12-20T21:57:35.810Z,2.00
2022-12-20T22:00:03.487Z,4.40
2022-12-20T22:02:30.715Z,3.33
2022-12-20T22:04:57.940Z,3.60
2022-12-20T22:07:25.093Z,4.65
2022-12-20T22:09:52.374Z,4.90
2022-12-20T22:12:19.501Z,5.30
2022-12-20T22:14:46.709Z,3.85
2022-12-20T22:17:13.786Z,7.32
2022-12-20T22:19:40.901Z,1.73
2022-12-20T22:22:08.077Z,2.22
2022-12-20T22:24:37.323Z,2.08
2022-12-20T22:27:11.053Z,1.30
2022-12-20T22:29:38.513Z,1.88
2022-12-20T22:32:05.872Z,1.33
2022-12-20T22:34:33.170Z,2.00
2022-12-20T22:37:00.557Z,2.90
2022-12-20T22:39:27.664Z,1.02
2022-12-20T22:41:54.807Z,2.08
2022-12-20T22:44:21.873Z,0.93
2022-12-20T22:46:48.976Z,0.63
2022-12-20T22:49:17.194Z,1.05
2022-12-20T22:51:46.703Z,1.77
2022-12-20T22:54:18.398Z,2.88
2022-12-20T22:56:45.572Z,1.20
2022-12-20T22:59:12.647Z,0.73
2022-12-20T23:01:39.789Z,2.17
2022-12-20T23:04:08.976Z,2.00
2022-12-20T23:06:36.166Z,0.70
2022-12-20T23:09:03.494Z,0.68
2022-12-20T23:11:49.497Z,1.30
2022-12-20T23:14:39.316Z,1.60
2022-12-20T23:17:07.520Z,1.10
2022-12-20T23:19:53.461Z,0.80
2022-12-20T23:22:40.795Z,1.20
2022-12-20T23:25:08.307Z,0.63
2022-12-20T23:27:35.788Z,1.63
2022-12-20T23:30:04.136Z,1.27
2022-12-20T23:32:31.212Z,1.92
2022-12-20T23:34:58.346Z,1.55
2022-12-20T23:37:25.697Z,1.35
2022-12-20T23:39:53.775Z,1.20
2022-12-20T23:42:20.995Z,1.05
2022-12-20T23:44:48.134Z,2.17
2022-12-20T23:47:18.827Z,0.88
2022-12-20T23:49:46.187Z,1.33
2022-12-20T23:52:13.273Z,2.63
2022-12-20T23:54:40.317Z,1.38
2022-12-20T23:57:07.419Z,1.02
2022-12-20T23:59:34.562Z,1.15
